Lemoore Naval Air Station (Reeves Field) Airport
KNLC : now visible

Airfield :











YOU CAN JOIN US ON...

 
LOGIN :

Register | Disclaimer

   EN    FR    IT 

 









Legend :    VFR   Marginal VFR   IFR   Intensive IFR   Very Intensive IFR
Visi :
Ceiling :
>= 8 km
>= 3000ft
5 to 8 km
1000 to 3000 ft
1500m to 5 km
500 to 1000 ft
800 to 1500m
200 to 500 ft
< 800m
< 200 ft
Symbols :   Thunderstorms  Fog  Heavy snow  Heavy precipitations  Wind > 20 kt






- Airport Elevation : 232 ft


KNLC - Lemoore Naval Air Station (Reeves Field)

CURRENT METAR :
  • 150756Z AUTO 34006KT 10SM OVC048 08/06 A3006 RMK AO2 SLP179 T00830056 401610056 $

EXPIRED METARs :
  • 150656Z AUTO 32004KT 10SM 07/05 A3005 RMK AO2 SLP177 T00670050 $
  • 150556Z AUTO 33007KT 10SM CLR 06/04 A3005 RMK AO2 SLP175 T00610039 10139 20061 53013 $

TAF AMD TAF KNLC
Valid from the 14 at 16:00 until the 15 at 15:00 UTC


1416/1515 33010KT 6000 BR VCSH SCT025 BKN035 OVC050 650702 550009 550909 551809 QNH2992INS
TEMPO 1416/1421 33017G22KT 3200 -SHRA BR SCT015 BKN025 BKN200
FM142100 33022G28KT 8000 BR FEW012 SCT030 650409 550009 530909 531809 QNH2990INS
TEMPO 1421/1503 33017KT 4800 BR BKN012 BKN030
FM150500 32012KT 6000 BR FEW010 SCT020 BKN045 650409 550009 550909 531809 QNH2992INS
TEMPO 1508/1514 0800 FG SCT006 BKN012 OVC025 T14/1423Z T04/1514Z AMD 1636 FS30118



MET'MAP, your aeronautical weather chart ! - Copyright ORBIFLY December 2007 - Disclaimer

ORBIFLY MET'MAP TEAM :

Programming & Development : Alexandra Zaïnal
Concept & original design : Baudouin d'Aumeries
Assistance for programming : Marc-Olivier Méhu
Technical & hardware support : Manuel Goepfert

Contact : metmap@orbifly.com




SOURCES & CREDITS :

   NOAA       Earth
Advisory